Time;durP1;ratioP1;P1;durP2;ratioP2;P2;SDS_P1;SDS_P2;PMS_P1;PMS_P2;Temp;Humidity;BMP_temperature;BMP_pressure;BME280_temperature;BME280_humidity;BME280_pressure;Samples;Min_cycle;Max_cycle;Signal;HPM_P1;HPM_P2
2023/11/12 00:00:31;;;;;;;0.10;0.10;;;5.70;99.90;;;;;;5064377;28;20672;-78
2023/11/12 00:02:57;;;;;;;0.10;0.10;;;5.80;99.90;;;;;;5064049;28;20193;-78
2023/11/12 00:05:23;;;;;;;0.00;0.00;;;5.80;99.90;;;;;;5067965;28;20226;-78
2023/11/12 00:07:48;;;;;;;0.00;0.00;;;5.80;99.90;;;;;;5064160;28;20633;-79
2023/11/12 00:10:14;;;;;;;0.10;0.10;;;5.80;99.90;;;;;;5062147;28;20271;-78
2023/11/12 00:12:41;;;;;;;0.10;0.10;;;5.80;99.90;;;;;;5064556;28;20194;-78
2023/11/12 00:15:07;;;;;;;0.00;0.00;;;5.80;99.90;;;;;;5069527;28;21052;-78
2023/11/12 00:17:33;;;;;;;0.10;0.10;;;5.70;99.90;;;;;;5066576;28;20918;-78
2023/11/12 00:20:00;;;;;;;0.10;0.10;;;5.30;99.90;;;;;;5066264;28;20552;-78
2023/11/12 00:22:28;;;;;;;0.03;0.03;;;5.10;99.90;;;;;;5067686;28;20187;-78
2023/11/12 00:24:53;;;;;;;0.00;0.00;;;4.90;99.90;;;;;;5068491;28;20205;-79
2023/11/12 00:27:19;;;;;;;0.10;0.10;;;4.70;99.90;;;;;;5062199;28;20185;-78
2023/11/12 00:29:44;;;;;;;0.10;0.10;;;4.70;99.90;;;;;;5066797;28;20239;-78
2023/11/12 00:32:10;;;;;;;0.00;0.00;;;4.70;99.90;;;;;;5071056;28;20205;-79
2023/11/12 00:34:36;;;;;;;0.00;0.00;;;4.90;99.90;;;;;;5070381;28;20201;-79
2023/11/12 00:37:02;;;;;;;0.10;0.10;;;5.00;99.90;;;;;;5067441;28;20206;-79
2023/11/12 00:39:27;;;;;;;0.10;0.10;;;5.10;99.90;;;;;;5072004;28;20178;-79
2023/11/12 00:41:53;;;;;;;0.10;0.10;;;5.10;99.90;;;;;;5076531;28;20272;-79
2023/11/12 00:44:19;;;;;;;0.00;0.00;;;5.00;99.90;;;;;;5074403;28;20186;-78
2023/11/12 00:46:44;;;;;;;0.00;0.00;;;5.10;99.90;;;;;;5071237;28;20208;-79
2023/11/12 00:49:10;;;;;;;0.00;0.00;;;5.00;99.90;;;;;;5071838;28;20327;-78
2023/11/12 00:51:36;;;;;;;0.10;0.10;;;4.90;99.90;;;;;;5067957;28;20544;-78
2023/11/12 00:54:02;;;;;;;0.10;0.10;;;5.00;99.90;;;;;;5071096;28;20657;-79
2023/11/12 00:56:28;;;;;;;0.10;0.10;;;4.70;99.90;;;;;;5070621;28;20794;-78
2023/11/12 00:58:53;;;;;;;0.00;0.00;;;4.40;99.90;;;;;;5072355;28;20271;-79
2023/11/12 01:01:20;;;;;;;0.00;0.00;;;4.30;99.90;;;;;;5070280;28;20188;-79
2023/11/12 01:03:45;;;;;;;0.10;0.10;;;4.30;99.90;;;;;;5072933;28;20216;-78
2023/11/12 01:06:11;;;;;;;0.00;0.00;;;4.30;99.90;;;;;;5069359;28;20228;-78
2023/11/12 01:08:37;;;;;;;0.10;0.10;;;4.30;99.90;;;;;;5068973;28;20181;-78
2023/11/12 01:11:03;;;;;;;0.00;0.00;;;4.30;99.90;;;;;;5069549;28;20197;-78
2023/11/12 01:13:29;;;;;;;0.10;0.10;;;4.10;99.90;;;;;;5070405;28;20210;-78
2023/11/12 01:15:56;;;;;;;0.00;0.00;;;4.00;99.90;;;;;;5064402;28;21228;-78
2023/11/12 01:18:21;;;;;;;0.10;0.10;;;4.00;99.90;;;;;;5073383;28;20172;-79
2023/11/12 01:20:47;;;;;;;0.00;0.00;;;4.10;99.90;;;;;;5068577;28;20713;-78
2023/11/12 01:23:13;;;;;;;0.10;0.10;;;4.30;99.90;;;;;;5073371;28;20256;-78
2023/11/12 01:25:40;;;;;;;0.03;0.03;;;4.40;99.90;;;;;;5071992;28;20688;-80
2023/11/12 01:28:06;;;;;;;0.00;0.00;;;4.50;99.90;;;;;;5067732;28;20189;-79
2023/11/12 01:30:31;;;;;;;0.10;0.10;;;4.70;99.90;;;;;;5062572;28;20195;-79
2023/11/12 01:32:57;;;;;;;0.10;0.10;;;4.90;99.90;;;;;;5066091;28;20182;-78
2023/11/12 01:35:23;;;;;;;0.10;0.10;;;5.10;99.90;;;;;;5073193;28;20292;-78
2023/11/12 01:37:49;;;;;;;0.10;0.10;;;5.30;99.90;;;;;;5071042;28;20209;-78
2023/11/12 01:40:16;;;;;;;0.10;0.10;;;5.30;99.90;;;;;;5069062;28;20183;-78
2023/11/12 01:42:45;;;;;;;0.10;0.10;;;5.00;99.90;;;;;;5073188;28;20205;-78
2023/11/12 01:45:12;;;;;;;0.00;0.00;;;5.20;99.90;;;;;;5072820;28;20284;-78
2023/11/12 01:47:40;;;;;;;0.00;0.00;;;5.40;99.90;;;;;;5073479;28;20183;-79
2023/11/12 01:50:08;;;;;;;0.10;0.10;;;5.40;99.90;;;;;;5069506;28;21142;-79
2023/11/12 01:52:36;;;;;;;0.10;0.10;;;5.20;99.90;;;;;;5072553;28;20658;-79
2023/11/12 01:55:06;;;;;;;0.10;0.10;;;4.90;99.90;;;;;;5067524;28;20206;-79
2023/11/12 01:57:33;;;;;;;0.10;0.10;;;5.10;99.90;;;;;;5068248;28;20208;-78
2023/11/12 02:00:10;;;;;;;0.10;0.10;;;4.90;99.90;;;;;;5072735;28;20204;-79
2023/11/12 02:02:37;;;;;;;0.00;0.00;;;5.10;99.90;;;;;;5072443;28;20265;-78
2023/11/12 02:05:06;;;;;;;0.00;0.00;;;5.20;99.90;;;;;;5067735;28;20207;-79
2023/11/12 02:07:32;;;;;;;0.10;0.10;;;5.30;99.90;;;;;;5071052;28;20181;-79
2023/11/12 02:10:08;;;;;;;0.10;0.10;;;5.50;99.90;;;;;;5072455;28;20189;-79
2023/11/12 02:12:34;;;;;;;0.00;0.00;;;5.30;99.90;;;;;;5071539;28;20381;-78
2023/11/12 02:15:00;;;;;;;0.00;0.00;;;5.20;99.90;;;;;;5070949;28;20301;-79
2023/11/12 02:17:26;;;;;;;0.10;0.10;;;5.00;99.90;;;;;;5069538;28;20206;-79
2023/11/12 02:19:52;;;;;;;0.10;0.10;;;4.90;99.90;;;;;;5069745;28;20227;-79
2023/11/12 02:22:18;;;;;;;0.00;0.00;;;4.80;99.90;;;;;;5070897;28;20179;-78
2023/11/12 02:24:43;;;;;;;0.10;0.10;;;4.80;99.90;;;;;;5065886;28;20204;-79
2023/11/12 02:27:08;;;;;;;0.10;0.10;;;4.90;99.90;;;;;;5068419;28;20204;-79
2023/11/12 02:29:34;;;;;;;0.10;0.10;;;4.70;99.90;;;;;;5071547;28;20185;-79
2023/11/12 02:32:00;;;;;;;0.10;0.10;;;4.60;99.90;;;;;;5070533;28;20178;-78
2023/11/12 02:34:26;;;;;;;0.00;0.00;;;4.60;99.90;;;;;;5069896;28;20197;-79
2023/11/12 02:36:52;;;;;;;0.10;0.10;;;4.70;99.90;;;;;;5087594;28;20259;-79
2023/11/12 02:39:20;;;;;;;0.00;0.00;;;4.80;99.90;;;;;;5071230;28;20186;-79
2023/11/12 02:41:46;;;;;;;0.00;0.00;;;4.80;99.90;;;;;;5070674;28;20211;-78
2023/11/12 02:44:13;;;;;;;0.10;0.10;;;4.80;99.90;;;;;;5068539;28;20177;-79
2023/11/12 02:46:40;;;;;;;0.03;0.03;;;4.90;99.90;;;;;;5069144;28;20285;-78
2023/11/12 02:49:42;;;;;;;0.10;0.10;;;4.90;99.90;;;;;;5069435;28;20185;-79
2023/11/12 02:52:08;;;;;;;0.10;0.10;;;5.10;99.90;;;;;;5070745;28;20244;-78
2023/11/12 02:54:35;;;;;;;0.10;0.10;;;5.30;99.90;;;;;;5063161;28;20181;-79
2023/11/12 02:57:03;;;;;;;0.10;0.10;;;5.30;99.90;;;;;;5069802;28;20209;-79
2023/11/12 02:59:29;;;;;;;0.10;0.10;;;5.40;99.90;;;;;;5062630;28;20185;-79
2023/11/12 03:01:55;;;;;;;0.00;0.00;;;5.30;99.90;;;;;;5071545;28;20178;-79
2023/11/12 03:04:21;;;;;;;0.00;0.00;;;5.50;99.90;;;;;;5071057;28;20206;-79
2023/11/12 03:06:47;;;;;;;0.00;0.00;;;5.70;99.90;;;;;;5069590;28;21152;-78
2023/11/12 03:09:16;;;;;;;0.00;0.00;;;5.80;99.90;;;;;;5067489;28;20657;-78
2023/11/12 03:11:42;;;;;;;0.10;0.10;;;5.90;99.90;;;;;;5070643;28;20189;-79
2023/11/12 03:14:08;;;;;;;0.10;0.10;;;6.00;99.90;;;;;;5065564;28;20804;-79
2023/11/12 03:16:34;;;;;;;0.10;0.10;;;5.90;99.90;;;;;;5066698;28;20283;-79
2023/11/12 03:19:00;;;;;;;0.10;0.10;;;5.80;99.90;;;;;;5070804;28;20180;-78
2023/11/12 03:21:27;;;;;;;0.10;0.10;;;5.60;99.90;;;;;;5069554;28;20171;-79
2023/11/12 03:23:52;;;;;;;0.10;0.10;;;5.60;99.90;;;;;;5069232;28;20273;-79
2023/11/12 03:26:18;;;;;;;0.10;0.10;;;5.70;99.90;;;;;;5060374;28;20783;-79
2023/11/12 03:28:44;;;;;;;0.10;0.10;;;5.80;99.90;;;;;;5069901;28;20189;-79
2023/11/12 03:31:10;;;;;;;0.10;0.10;;;5.70;99.90;;;;;;5068282;28;20248;-78
2023/11/12 03:33:35;;;;;;;0.10;0.10;;;5.70;99.90;;;;;;5069000;28;20567;-79
2023/11/12 03:36:02;;;;;;;0.07;0.07;;;5.70;99.90;;;;;;5067573;28;20205;-79
2023/11/12 03:38:28;;;;;;;0.10;0.10;;;5.80;99.90;;;;;;5070433;28;20234;-79
2023/11/12 03:40:55;;;;;;;0.10;0.10;;;5.90;99.90;;;;;;5066932;28;20242;-79
2023/11/12 03:43:20;;;;;;;0.00;0.00;;;6.00;99.90;;;;;;5069472;28;20180;-79
2023/11/12 03:45:46;;;;;;;0.10;0.10;;;6.10;99.90;;;;;;5068858;28;20211;-79
2023/11/12 03:48:11;;;;;;;0.10;0.10;;;6.10;99.90;;;;;;5069695;28;20190;-78
2023/11/12 03:50:37;;;;;;;0.10;0.10;;;6.20;99.90;;;;;;5069816;28;20187;-79
2023/11/12 03:53:04;;;;;;;0.10;0.10;;;6.20;99.90;;;;;;5067216;28;20188;-79
2023/11/12 03:55:30;;;;;;;0.10;0.10;;;6.30;99.90;;;;;;5069854;28;20545;-79
2023/11/12 03:57:55;;;;;;;0.10;0.10;;;6.20;99.90;;;;;;5068272;28;20258;-79
2023/11/12 04:00:21;;;;;;;0.10;0.10;;;6.20;99.90;;;;;;5067561;28;20181;-79
2023/11/12 04:02:47;;;;;;;0.10;0.10;;;6.30;99.90;;;;;;5068326;28;20185;-79
2023/11/12 04:05:13;;;;;;;0.10;0.10;;;6.30;99.90;;;;;;5067605;28;20310;-79
2023/11/12 04:07:38;;;;;;;0.10;0.10;;;6.30;99.90;;;;;;5066272;28;20274;-78
2023/11/12 04:10:05;;;;;;;0.10;0.10;;;6.40;99.90;;;;;;5066639;28;20191;-79
2023/11/12 04:12:34;;;;;;;0.10;0.10;;;6.40;99.90;;;;;;5063013;28;20201;-79
2023/11/12 04:14:59;;;;;;;0.10;0.10;;;6.50;99.90;;;;;;5063412;28;20235;-79
2023/11/12 04:17:25;;;;;;;0.10;0.10;;;6.50;99.90;;;;;;5069436;28;20230;-79
2023/11/12 04:19:51;;;;;;;0.10;0.10;;;6.60;99.90;;;;;;5067195;28;20213;-79
2023/11/12 04:22:17;;;;;;;0.03;0.03;;;6.20;99.90;;;;;;5069416;28;20178;-79
2023/11/12 04:24:42;;;;;;;0.10;0.10;;;6.10;99.90;;;;;;5063709;28;20930;-79
2023/11/12 04:27:08;;;;;;;0.00;0.00;;;6.00;99.90;;;;;;5067261;28;20178;-78
2023/11/12 04:29:34;;;;;;;0.10;0.10;;;6.00;99.90;;;;;;5066707;28;21154;-78
2023/11/12 04:32:00;;;;;;;0.10;0.10;;;6.20;99.90;;;;;;5067343;28;20197;-79
2023/11/12 04:34:26;;;;;;;0.10;0.10;;;5.80;99.90;;;;;;5066611;28;20250;-79
2023/11/12 04:36:52;;;;;;;0.00;0.00;;;5.70;99.90;;;;;;5067186;28;20198;-79
2023/11/12 04:39:19;;;;;;;0.10;0.10;;;5.90;99.90;;;;;;5067759;28;20666;-79
2023/11/12 04:41:44;;;;;;;0.10;0.10;;;6.00;99.90;;;;;;5065356;28;20178;-79
2023/11/12 04:44:10;;;;;;;0.10;0.10;;;5.70;99.90;;;;;;5063949;28;20203;-79
2023/11/12 04:46:36;;;;;;;0.10;0.10;;;5.40;99.90;;;;;;5067929;28;20827;-79
2023/11/12 04:49:02;;;;;;;0.03;0.03;;;5.30;99.90;;;;;;5065205;28;20196;-79
2023/11/12 04:51:27;;;;;;;0.10;0.10;;;5.40;99.90;;;;;;5068658;28;20666;-79
2023/11/12 04:53:54;;;;;;;0.10;0.10;;;5.20;99.90;;;;;;5064173;28;20191;-79
2023/11/12 04:56:20;;;;;;;0.10;0.10;;;5.20;99.90;;;;;;5065280;28;20208;-79
2023/11/12 04:58:45;;;;;;;0.10;0.10;;;5.30;99.90;;;;;;5058766;28;20176;-79
2023/11/12 05:01:11;;;;;;;0.10;0.10;;;5.50;99.90;;;;;;5064077;28;20192;-79
2023/11/12 05:03:37;;;;;;;0.00;0.00;;;5.60;99.90;;;;;;5068608;28;20295;-79
2023/11/12 05:06:03;;;;;;;0.10;0.10;;;5.70;99.90;;;;;;5066615;28;20283;-79
2023/11/12 05:08:29;;;;;;;0.10;0.10;;;5.70;99.90;;;;;;5066847;28;20173;-78
2023/11/12 05:10:55;;;;;;;0.10;0.10;;;5.70;99.90;;;;;;5068059;28;20210;-79
2023/11/12 05:13:20;;;;;;;0.10;0.10;;;5.50;99.90;;;;;;5059111;28;20229;-79
2023/11/12 05:15:46;;;;;;;0.10;0.10;;;5.40;99.90;;;;;;5083785;28;20208;-78
2023/11/12 05:18:11;;;;;;;0.10;0.10;;;5.30;99.90;;;;;;5068465;28;20262;-79
2023/11/12 05:20:37;;;;;;;0.10;0.10;;;5.40;99.90;;;;;;5057349;28;20177;-79
2023/11/12 05:23:02;;;;;;;0.00;0.00;;;5.30;99.90;;;;;;5057744;28;20208;-78
2023/11/12 05:25:29;;;;;;;0.00;0.00;;;5.20;99.90;;;;;;5058149;28;20219;-79
2023/11/12 05:27:55;;;;;;;0.10;0.10;;;5.30;99.90;;;;;;5063081;28;20182;-79
2023/11/12 05:30:20;;;;;;;0.00;0.00;;;5.30;99.90;;;;;;5066393;28;20247;-79
2023/11/12 05:32:50;;;;;;;0.10;0.10;;;5.40;99.90;;;;;;5067652;28;20181;-79
2023/11/12 05:35:16;;;;;;;0.10;0.10;;;5.70;99.90;;;;;;5063407;28;20241;-79
2023/11/12 05:37:41;;;;;;;0.07;0.07;;;5.70;99.90;;;;;;5059740;28;20240;-79
2023/11/12 05:40:08;;;;;;;0.10;0.10;;;5.70;99.90;;;;;;5066617;28;20230;-79
2023/11/12 05:42:34;;;;;;;0.10;0.10;;;5.80;99.90;;;;;;5058056;28;20185;-79
2023/11/12 05:44:59;;;;;;;0.10;0.10;;;6.00;99.90;;;;;;5060466;28;20195;-78
2023/11/12 05:47:25;;;;;;;0.00;0.00;;;6.10;99.90;;;;;;5062875;28;20195;-78
2023/11/12 05:49:50;;;;;;;0.10;0.10;;;6.30;99.90;;;;;;5065705;28;20212;-78
2023/11/12 05:52:16;;;;;;;0.10;0.10;;;6.40;99.90;;;;;;5059366;28;20224;-78
2023/11/12 05:54:41;;;;;;;0.10;0.10;;;6.50;99.90;;;;;;5060673;28;20228;-78
2023/11/12 05:57:07;;;;;;;0.00;0.00;;;6.50;99.90;;;;;;5060198;28;20223;-78
2023/11/12 05:59:33;;;;;;;0.10;0.10;;;6.50;99.90;;;;;;5061433;28;20644;-78
2023/11/12 06:01:58;;;;;;;0.00;0.00;;;6.30;99.90;;;;;;5066059;28;20181;-78
2023/11/12 06:04:24;;;;;;;0.10;0.10;;;6.20;99.90;;;;;;5063386;28;20210;-78
2023/11/12 06:06:49;;;;;;;0.00;0.00;;;6.10;99.90;;;;;;5069218;28;20210;-78
2023/11/12 06:09:15;;;;;;;0.10;0.10;;;6.10;99.90;;;;;;5068753;28;20286;-78
2023/11/12 06:11:40;;;;;;;0.10;0.10;;;6.00;99.90;;;;;;5068886;28;20272;-78
2023/11/12 06:14:06;;;;;;;0.03;0.03;;;6.00;99.90;;;;;;5060479;28;20278;-78
2023/11/12 06:16:33;;;;;;;0.10;0.10;;;5.90;99.90;;;;;;5065218;28;20289;-78
2023/11/12 06:18:58;;;;;;;0.10;0.10;;;5.80;99.90;;;;;;5065376;28;20173;-78
2023/11/12 06:21:24;;;;;;;0.00;0.00;;;5.80;99.90;;;;;;5069257;28;20203;-78
2023/11/12 06:23:50;;;;;;;0.00;0.00;;;6.00;99.90;;;;;;5068407;28;20646;-78
2023/11/12 06:26:19;;;;;;;0.10;0.10;;;6.20;99.90;;;;;;5067979;28;20281;-78
2023/11/12 06:28:45;;;;;;;0.10;0.10;;;6.40;99.90;;;;;;5065690;28;20180;-78
2023/11/12 06:31:10;;;;;;;0.10;0.10;;;6.60;99.90;;;;;;5064077;28;20182;-78
2023/11/12 06:33:36;;;;;;;0.10;0.10;;;6.60;99.90;;;;;;5061060;28;20278;-78
2023/11/12 06:36:01;;;;;;;0.00;0.00;;;6.70;99.90;;;;;;5064516;28;20266;-78
2023/11/12 06:38:27;;;;;;;0.10;0.10;;;6.80;99.90;;;;;;5065965;28;20207;-78
2023/11/12 06:40:53;;;;;;;0.03;0.03;;;6.80;99.90;;;;;;5068012;28;20684;-79
2023/11/12 06:43:18;;;;;;;0.10;0.10;;;6.80;99.90;;;;;;5069609;28;20182;-79
2023/11/12 06:45:44;;;;;;;0.10;0.10;;;6.90;99.90;;;;;;5061003;28;20223;-79
2023/11/12 06:48:10;;;;;;;0.10;0.10;;;6.90;99.90;;;;;;5067207;28;20196;-79
2023/11/12 06:50:35;;;;;;;0.10;0.10;;;6.70;99.90;;;;;;5068225;28;20195;-79
2023/11/12 06:53:01;;;;;;;0.10;0.10;;;6.70;99.90;;;;;;5064328;28;20206;-79
2023/11/12 06:55:28;;;;;;;0.10;0.10;;;6.80;99.90;;;;;;5063990;28;20299;-79
2023/11/12 06:57:54;;;;;;;0.10;0.10;;;6.80;99.90;;;;;;5065870;28;20206;-79
2023/11/12 07:00:20;;;;;;;0.10;0.10;;;6.60;99.90;;;;;;5071174;28;20184;-79
2023/11/12 07:02:45;;;;;;;0.00;0.00;;;6.30;99.90;;;;;;5068832;28;20258;-79
2023/11/12 07:05:11;;;;;;;0.00;0.00;;;6.30;99.90;;;;;;5070912;28;20239;-79
2023/11/12 07:07:38;;;;;;;0.10;0.10;;;6.30;99.90;;;;;;5074605;28;20187;-79
2023/11/12 07:10:05;;;;;;;0.10;0.10;;;6.40;99.90;;;;;;5074772;28;20198;-79
2023/11/12 07:12:31;;;;;;;0.10;0.10;;;6.40;99.90;;;;;;5072858;28;20194;-79
2023/11/12 07:14:57;;;;;;;0.10;0.10;;;6.50;99.90;;;;;;5069977;28;20200;-80
2023/11/12 07:17:25;;;;;;;0.10;0.10;;;6.70;99.90;;;;;;5068846;28;20720;-79
2023/11/12 07:19:53;;;;;;;0.00;0.00;;;6.80;99.90;;;;;;5066578;28;20633;-80
2023/11/12 07:22:18;;;;;;;0.10;0.10;;;6.90;99.90;;;;;;5069978;28;20187;-80
2023/11/12 07:24:44;;;;;;;0.10;0.10;;;7.00;99.90;;;;;;5072162;28;20240;-80
2023/11/12 07:27:09;;;;;;;0.00;0.00;;;7.10;99.90;;;;;;5066382;28;20279;-79
2023/11/12 07:29:35;;;;;;;0.10;0.10;;;7.10;99.90;;;;;;5069510;28;20236;-78
2023/11/12 07:32:00;;;;;;;0.10;0.10;;;7.10;99.90;;;;;;5066231;28;20211;-79
2023/11/12 07:34:26;;;;;;;0.10;0.10;;;7.20;99.90;;;;;;5068954;28;20191;-80
2023/11/12 07:36:52;;;;;;;0.10;0.10;;;7.20;99.90;;;;;;5060492;28;20219;-78
2023/11/12 07:39:17;;;;;;;0.10;0.10;;;7.20;99.90;;;;;;5061845;28;20825;-78
2023/11/12 07:41:43;;;;;;;0.10;0.10;;;7.20;99.90;;;;;;5070178;28;20187;-78
2023/11/12 07:44:08;;;;;;;0.10;0.10;;;7.20;99.90;;;;;;5071239;28;20185;-79
2023/11/12 07:46:39;;;;;;;0.10;0.10;;;7.20;99.90;;;;;;5068146;28;20204;-79
2023/11/12 07:49:05;;;;;;;0.10;0.10;;;7.10;99.90;;;;;;5072258;28;20221;-79
2023/11/12 07:51:31;;;;;;;0.10;0.10;;;7.10;99.90;;;;;;5068241;28;20561;-79
2023/11/12 07:53:57;;;;;;;0.10;0.10;;;7.10;99.90;;;;;;5066627;28;20195;-80
2023/11/12 07:56:23;;;;;;;0.10;0.10;;;7.10;99.90;;;;;;5068817;28;20612;-80
2023/11/12 07:58:48;;;;;;;0.10;0.10;;;7.20;99.90;;;;;;5071385;28;20198;-79
2023/11/12 08:01:15;;;;;;;0.10;0.10;;;7.30;99.90;;;;;;5071849;28;20179;-79
2023/11/12 08:03:41;;;;;;;0.10;0.10;;;7.20;99.90;;;;;;5065242;28;20211;-80
2023/11/12 08:06:09;;;;;;;0.10;0.10;;;7.20;99.90;;;;;;5062470;28;20199;-79
2023/11/12 08:08:34;;;;;;;0.10;0.10;;;7.30;99.90;;;;;;5067137;28;20192;-80
2023/11/12 08:11:00;;;;;;;0.10;0.10;;;7.30;99.90;;;;;;5070398;28;20196;-80
2023/11/12 08:13:27;;;;;;;0.10;0.10;;;7.30;99.90;;;;;;5069649;28;20186;-79
2023/11/12 08:15:53;;;;;;;0.10;0.10;;;7.20;99.90;;;;;;5065988;28;20199;-79
2023/11/12 08:18:18;;;;;;;0.00;0.00;;;7.30;99.90;;;;;;5067520;28;20194;-79
2023/11/12 08:20:45;;;;;;;0.10;0.10;;;7.40;99.90;;;;;;5064962;28;20230;-80
2023/11/12 08:23:10;;;;;;;0.10;0.10;;;7.50;99.90;;;;;;5063932;28;20227;-80
2023/11/12 08:25:37;;;;;;;0.10;0.10;;;7.60;99.90;;;;;;5062685;28;20219;-80
2023/11/12 08:28:03;;;;;;;0.10;0.10;;;7.60;99.90;;;;;;5066932;28;20206;-80
2023/11/12 08:30:29;;;;;;;0.10;0.10;;;7.70;99.90;;;;;;5062040;28;21060;-80
2023/11/12 08:32:55;;;;;;;0.10;0.10;;;7.70;99.90;;;;;;5063246;28;20198;-80
2023/11/12 08:35:20;;;;;;;0.10;0.10;;;7.70;99.90;;;;;;5069427;28;20223;-80
2023/11/12 08:37:47;;;;;;;0.10;0.10;;;7.80;99.90;;;;;;5068750;28;20735;-79
2023/11/12 08:40:12;;;;;;;0.10;0.10;;;7.80;99.90;;;;;;5064960;28;20209;-80
2023/11/12 08:42:38;;;;;;;0.00;0.00;;;7.80;99.90;;;;;;5065000;28;20214;-80
2023/11/12 08:45:04;;;;;;;0.10;0.10;;;7.70;99.90;;;;;;5067181;28;20230;-77
2023/11/12 08:47:31;;;;;;;0.10;0.10;;;7.80;99.90;;;;;;5062683;28;20574;-77
2023/11/12 08:49:56;;;;;;;0.10;0.10;;;7.80;99.90;;;;;;5062826;28;20658;-77
2023/11/12 08:52:22;;;;;;;0.10;0.10;;;7.60;99.90;;;;;;5060762;28;20417;-77
2023/11/12 08:54:49;;;;;;;0.10;0.10;;;7.50;99.90;;;;;;5066965;28;20187;-78
2023/11/12 08:57:14;;;;;;;0.10;0.10;;;7.30;99.90;;;;;;5056682;28;20682;-77
2023/11/12 08:59:40;;;;;;;0.00;0.00;;;7.40;99.90;;;;;;5061885;28;20180;-77
2023/11/12 09:02:09;;;;;;;0.10;0.10;;;7.50;99.90;;;;;;5060370;28;20189;-78
2023/11/12 09:04:34;;;;;;;0.10;0.10;;;7.30;99.90;;;;;;5066454;28;20185;-78
2023/11/12 09:07:01;;;;;;;0.10;0.10;;;7.20;99.90;;;;;;5060161;28;20191;-77
2023/11/12 09:09:26;;;;;;;0.00;0.00;;;7.20;99.90;;;;;;5066632;28;20179;-78
2023/11/12 09:11:52;;;;;;;0.10;0.10;;;7.10;99.90;;;;;;5066816;28;20214;-78
2023/11/12 09:14:18;;;;;;;0.10;0.10;;;7.30;99.90;;;;;;5058102;28;20196;-80
2023/11/12 09:16:46;;;;;;;0.00;0.00;;;7.40;99.90;;;;;;5061061;28;20218;-78
2023/11/12 09:19:12;;;;;;;0.10;0.10;;;7.60;99.90;;;;;;5068316;28;20290;-78
2023/11/12 09:21:38;;;;;;;0.10;0.10;;;7.50;99.90;;;;;;5060344;28;20651;-78
2023/11/12 09:24:04;;;;;;;0.10;0.10;;;7.50;99.90;;;;;;5067226;28;20588;-79
2023/11/12 09:26:29;;;;;;;0.10;0.10;;;7.30;99.90;;;;;;5067393;28;20663;-79
2023/11/12 09:28:55;;;;;;;0.10;0.10;;;7.20;99.90;;;;;;5061990;28;20184;-78
2023/11/12 09:31:20;;;;;;;0.10;0.10;;;7.20;99.90;;;;;;5068051;28;20233;-79
2023/11/12 09:33:46;;;;;;;0.10;0.10;;;7.20;99.90;;;;;;5062217;28;20816;-78
2023/11/12 09:36:13;;;;;;;0.10;0.10;;;7.10;99.90;;;;;;5064474;28;20209;-79
2023/11/12 09:38:39;;;;;;;0.10;0.10;;;7.00;99.90;;;;;;5070845;28;20184;-78
2023/11/12 09:41:06;;;;;;;0.10;0.10;;;7.20;99.90;;;;;;5063326;28;20294;-78
2023/11/12 09:43:33;;;;;;;0.03;0.03;;;7.40;99.90;;;;;;5069974;28;20313;-78
2023/11/12 09:45:59;;;;;;;0.10;0.10;;;7.50;99.90;;;;;;5065291;28;20226;-78
2023/11/12 09:48:35;;;;;;;0.10;0.10;;;7.70;99.90;;;;;;5070719;28;20276;-78
2023/11/12 09:51:05;;;;;;;0.10;0.10;;;7.90;99.90;;;;;;5070160;28;20191;-78
2023/11/12 09:53:32;;;;;;;0.00;0.00;;;7.80;99.90;;;;;;5065122;28;20210;-78
2023/11/12 09:55:57;;;;;;;0.10;0.10;;;7.50;99.90;;;;;;5065701;28;20212;-78
2023/11/12 09:58:23;;;;;;;0.00;0.00;;;7.30;99.90;;;;;;5069547;28;20207;-78
2023/11/12 10:00:51;;;;;;;0.10;0.10;;;7.20;99.90;;;;;;5065217;28;20195;-78
2023/11/12 10:03:16;;;;;;;0.10;0.10;;;7.10;99.90;;;;;;5061514;28;20189;-78
2023/11/12 10:05:42;;;;;;;0.10;0.10;;;7.30;99.90;;;;;;5071372;28;20295;-78
2023/11/12 10:08:08;;;;;;;0.10;0.10;;;7.30;99.90;;;;;;5068200;28;20666;-78
2023/11/12 10:10:34;;;;;;;0.10;0.10;;;7.40;99.90;;;;;;5084653;28;20209;-79
2023/11/12 10:13:04;;;;;;;0.10;0.10;;;7.40;99.90;;;;;;5070467;28;20189;-79
2023/11/12 10:15:33;;;;;;;0.10;0.10;;;7.40;99.90;;;;;;5071179;28;20274;-78
2023/11/12 10:17:59;;;;;;;0.10;0.10;;;7.60;99.90;;;;;;5070197;28;20209;-79
2023/11/12 10:20:27;;;;;;;0.10;0.10;;;7.90;99.90;;;;;;5062164;28;20188;-78
2023/11/12 10:22:53;;;;;;;0.10;0.10;;;8.00;99.90;;;;;;5069951;28;20189;-78
2023/11/12 10:25:42;;;;;;;0.10;0.10;;;8.00;99.90;;;;;;5065321;28;20219;-78
2023/11/12 10:28:09;;;;;;;0.10;0.10;;;7.80;99.90;;;;;;5069918;28;20188;-78
2023/11/12 10:30:39;;;;;;;0.10;0.10;;;7.70;99.90;;;;;;5061897;28;20599;-78
2023/11/12 10:33:14;;;;;;;0.10;0.10;;;7.70;99.90;;;;;;5065999;28;20192;-79
2023/11/12 10:35:40;;;;;;;0.10;0.10;;;7.90;99.90;;;;;;5082139;28;20230;-78
2023/11/12 10:38:06;;;;;;;0.10;0.10;;;8.10;99.90;;;;;;5074723;28;20695;-77
2023/11/12 10:40:32;;;;;;;0.10;0.10;;;8.40;99.90;;;;;;5071625;28;20298;-78
2023/11/12 10:43:09;;;;;;;0.10;0.10;;;8.10;99.90;;;;;;5073076;28;20731;-80
2023/11/12 10:45:35;;;;;;;0.10;0.10;;;8.00;99.90;;;;;;5063762;28;20205;-78
2023/11/12 10:48:04;;;;;;;0.10;0.10;;;8.00;99.90;;;;;;5070023;28;20189;-79
2023/11/12 10:50:30;;;;;;;0.10;0.10;;;8.10;99.90;;;;;;5068444;28;20188;-77
2023/11/12 10:52:56;;;;;;;0.00;0.00;;;8.20;99.90;;;;;;5067639;28;20189;-78
2023/11/12 10:55:22;;;;;;;0.10;0.10;;;8.40;99.90;;;;;;5060626;28;20308;-78
2023/11/12 10:57:52;;;;;;;0.10;0.10;;;8.30;99.90;;;;;;5063974;28;20212;-78
2023/11/12 11:00:22;;;;;;;0.10;0.10;;;8.00;99.90;;;;;;5070131;28;20235;-79
2023/11/12 11:02:48;;;;;;;0.10;0.10;;;8.30;99.90;;;;;;5069572;28;20181;-78
2023/11/12 11:05:16;;;;;;;0.10;0.10;;;7.90;99.90;;;;;;5068588;28;20223;-78
2023/11/12 11:07:43;;;;;;;0.10;0.10;;;7.90;99.90;;;;;;5064985;28;20241;-79
2023/11/12 11:10:09;;;;;;;0.10;0.10;;;7.80;99.90;;;;;;5069814;28;20203;-79
2023/11/12 11:12:36;;;;;;;0.10;0.10;;;7.90;99.90;;;;;;5069647;28;20188;-78
2023/11/12 11:15:40;;;;;;;0.10;0.10;;;8.20;99.90;;;;;;5068330;28;20305;-79
2023/11/12 11:18:06;;;;;;;0.10;0.10;;;8.20;99.90;;;;;;5052356;28;20578;-79
2023/11/12 11:21:08;;;;;;;0.00;0.00;;;8.10;99.90;;;;;;5067991;28;20210;-79
2023/11/12 11:23:38;;;;;;;0.10;0.10;;;8.00;99.90;;;;;;5060745;28;20203;-78
2023/11/12 11:26:29;;;;;;;0.10;0.10;;;8.00;99.90;;;;;;5068055;28;20206;-78
2023/11/12 11:29:04;;;;;;;0.10;0.10;;;7.80;99.90;;;;;;5067637;28;20177;-78
2023/11/12 11:31:45;;;;;;;0.00;0.00;;;7.90;99.90;;;;;;5064745;28;20285;-79
2023/11/12 11:34:12;;;;;;;0.03;0.03;;;7.90;99.90;;;;;;5075322;28;20184;-79
2023/11/12 11:36:39;;;;;;;0.10;0.10;;;8.10;99.90;;;;;;5062615;28;20216;-79
2023/11/12 11:39:12;;;;;;;0.00;0.00;;;8.00;99.90;;;;;;5063499;28;20201;-78
2023/11/12 11:41:50;;;;;;;0.10;0.10;;;7.80;99.90;;;;;;5065825;28;20181;-79
2023/11/12 11:44:31;;;;;;;0.10;0.10;;;7.90;99.90;;;;;;5080628;28;20191;-81
2023/11/12 11:47:16;;;;;;;0.10;0.10;;;8.00;99.90;;;;;;5077205;28;20698;-79
2023/11/12 11:50:09;;;;;;;0.10;0.10;;;8.10;99.90;;;;;;5071438;28;20196;-79
2023/11/12 11:52:34;;;;;;;0.10;0.10;;;8.20;99.90;;;;;;5065041;28;20197;-78
2023/11/12 11:55:08;;;;;;;0.10;0.10;;;8.40;99.90;;;;;;5070897;28;20217;-79
2023/11/12 11:57:49;;;;;;;0.10;0.10;;;8.40;99.90;;;;;;5067347;28;20301;-80
2023/11/12 12:00:16;;;;;;;0.00;0.00;;;8.40;99.90;;;;;;5068855;28;20571;-79
2023/11/12 12:02:44;;;;;;;0.10;0.10;;;8.30;99.90;;;;;;5063816;28;20220;-79
2023/11/12 12:05:10;;;;;;;0.10;0.10;;;8.60;99.90;;;;;;5068613;28;20243;-79
2023/11/12 12:07:36;;;;;;;0.10;0.10;;;8.70;99.90;;;;;;5067520;28;20195;-79
2023/11/12 12:10:03;;;;;;;0.10;0.10;;;8.70;99.90;;;;;;5062533;28;20187;-79
2023/11/12 12:12:29;;;;;;;0.10;0.10;;;8.90;99.90;;;;;;5065797;28;20199;-79
2023/11/12 12:14:55;;;;;;;0.10;0.10;;;9.10;99.90;;;;;;5075415;28;20250;-79
2023/11/12 12:17:21;;;;;;;0.00;0.00;;;9.30;99.90;;;;;;5074229;28;20205;-79
2023/11/12 12:19:54;;;;;;;0.10;0.10;;;9.40;99.90;;;;;;5072539;28;20187;-79
2023/11/12 12:22:23;;;;;;;0.00;0.00;;;9.50;99.90;;;;;;5070337;28;20241;-78
2023/11/12 12:24:53;;;;;;;0.07;0.07;;;9.40;99.90;;;;;;5068885;28;20226;-78
2023/11/12 12:27:19;;;;;;;0.10;0.10;;;9.00;99.90;;;;;;5060391;28;20193;-78
2023/11/12 12:29:48;;;;;;;0.10;0.10;;;9.00;99.90;;;;;;5072662;28;20238;-78
2023/11/12 12:32:18;;;;;;;0.00;0.00;;;9.20;99.90;;;;;;5073448;28;20248;-79
2023/11/12 12:34:49;;;;;;;0.10;0.10;;;9.20;99.90;;;;;;5071298;28;20184;-79
2023/11/12 12:37:19;;;;;;;0.00;0.00;;;9.30;99.90;;;;;;5068337;28;20220;-79
2023/11/12 12:40:10;;;;;;;0.10;0.10;;;9.30;99.90;;;;;;5070677;28;20174;-78
2023/11/12 12:42:36;;;;;;;0.10;0.10;;;9.30;99.90;;;;;;5072653;28;20168;-78
2023/11/12 12:45:10;;;;;;;0.10;0.10;;;9.40;99.90;;;;;;5068007;28;20196;-79
2023/11/12 12:47:42;;;;;;;0.10;0.10;;;9.40;99.90;;;;;;5067260;28;20192;-79
2023/11/12 12:50:21;;;;;;;0.60;0.60;;;9.40;99.90;;;;;;5066358;28;20264;-78
2023/11/12 12:52:47;;;;;;;0.03;0.03;;;9.50;99.90;;;;;;5066543;28;20237;-79
2023/11/12 12:55:17;;;;;;;0.03;0.03;;;9.60;99.90;;;;;;5066910;28;20208;-79
2023/11/12 12:57:52;;;;;;;0.10;0.10;;;9.60;99.90;;;;;;5069712;28;20258;-79